Time;durP1;ratioP1;P1;durP2;ratioP2;P2;SDS_P1;SDS_P2;PMS_P1;PMS_P2;Temp;Humidity;BMP_temperature;BMP_pressure;BME280_temperature;BME280_humidity;BME280_pressure;Samples;Min_cycle;Max_cycle;Signal;HPM_P1;HPM_P2
2023/12/26 00:01:46;;;;;;;1.73;0.93;;;12.30;99.90;;;;;;5052991;28;20263;-62
2023/12/26 00:04:13;;;;;;;3.43;1.13;;;12.30;99.90;;;;;;5054140;28;20246;-63
2023/12/26 00:06:43;;;;;;;1.77;1.20;;;12.20;99.90;;;;;;5053344;28;20209;-62
2023/12/26 00:09:11;;;;;;;3.00;1.10;;;12.30;99.90;;;;;;5052966;28;20674;-62
2023/12/26 00:11:42;;;;;;;6.40;1.30;;;12.20;99.90;;;;;;5053151;28;20272;-62
2023/12/26 00:14:09;;;;;;;3.13;1.30;;;12.10;99.90;;;;;;5053129;28;20340;-63
2023/12/26 00:16:35;;;;;;;3.27;1.10;;;12.10;99.90;;;;;;5053016;28;20205;-63
2023/12/26 00:19:02;;;;;;;2.57;1.30;;;11.90;99.90;;;;;;5052757;28;20763;-62
2023/12/26 00:21:29;;;;;;;2.27;0.93;;;11.90;99.90;;;;;;5053027;28;20671;-63
2023/12/26 00:23:57;;;;;;;3.53;1.10;;;11.90;99.90;;;;;;5052894;28;20206;-62
2023/12/26 00:26:24;;;;;;;2.77;1.33;;;11.90;99.90;;;;;;5036662;28;20206;-61
2023/12/26 00:28:50;;;;;;;4.33;1.27;;;11.90;99.90;;;;;;5052687;28;20380;-61
2023/12/26 00:31:17;;;;;;;2.70;1.13;;;11.90;99.90;;;;;;5052359;28;20277;-62
2023/12/26 00:33:44;;;;;;;1.87;1.10;;;11.90;99.90;;;;;;5052554;28;20286;-62
2023/12/26 00:36:13;;;;;;;5.07;1.30;;;11.90;99.90;;;;;;5052447;28;20213;-62
2023/12/26 00:38:40;;;;;;;1.47;0.80;;;12.00;99.90;;;;;;5052543;28;20308;-63
2023/12/26 00:41:08;;;;;;;1.70;0.83;;;11.90;99.90;;;;;;5052323;28;20683;-62
2023/12/26 00:43:35;;;;;;;2.23;1.00;;;11.90;99.90;;;;;;5052457;28;20205;-62
2023/12/26 00:46:01;;;;;;;2.67;1.20;;;11.90;99.90;;;;;;5052403;28;20209;-64
2023/12/26 00:48:28;;;;;;;2.10;1.00;;;12.10;99.90;;;;;;5052302;28;20572;-62
2023/12/26 00:50:55;;;;;;;5.67;1.27;;;12.10;99.90;;;;;;5051931;28;20584;-63
2023/12/26 00:53:22;;;;;;;2.20;0.70;;;12.10;99.90;;;;;;5052098;28;20201;-64
2023/12/26 00:55:49;;;;;;;2.47;1.20;;;12.20;99.90;;;;;;5052193;28;20300;-63
2023/12/26 00:58:17;;;;;;;2.23;1.07;;;12.20;99.90;;;;;;5052003;28;20275;-63
2023/12/26 01:00:45;;;;;;;1.23;0.87;;;12.20;99.90;;;;;;5051969;28;20221;-63
2023/12/26 01:03:12;;;;;;;3.10;1.17;;;12.20;99.90;;;;;;5051995;28;20213;-64
2023/12/26 01:05:38;;;;;;;1.50;0.83;;;12.20;99.90;;;;;;5052113;28;20217;-63
2023/12/26 01:08:08;;;;;;;2.23;1.00;;;12.20;99.90;;;;;;5051735;28;20226;-63
2023/12/26 01:10:35;;;;;;;1.47;0.90;;;12.30;99.90;;;;;;5052126;28;20279;-63
2023/12/26 01:13:02;;;;;;;4.17;1.10;;;12.30;99.90;;;;;;5051629;28;20209;-64
2023/12/26 01:15:30;;;;;;;2.50;0.90;;;12.30;99.90;;;;;;5052092;28;20253;-63
2023/12/26 01:17:57;;;;;;;3.43;1.03;;;12.20;99.90;;;;;;5051749;28;20225;-64
2023/12/26 01:20:23;;;;;;;2.90;1.10;;;12.30;99.90;;;;;;5043115;28;20209;-64
2023/12/26 01:22:50;;;;;;;2.83;1.23;;;12.30;99.90;;;;;;5051436;28;20574;-64
2023/12/26 01:25:17;;;;;;;2.80;1.10;;;12.30;99.90;;;;;;5051596;28;20292;-63
2023/12/26 01:27:44;;;;;;;2.03;0.90;;;12.20;99.90;;;;;;5051486;28;20241;-63
2023/12/26 01:30:11;;;;;;;1.37;0.80;;;12.10;99.90;;;;;;5051384;28;20300;-64
2023/12/26 01:32:39;;;;;;;3.10;1.00;;;12.10;99.90;;;;;;5051315;28;20214;-63
2023/12/26 01:35:06;;;;;;;4.97;1.30;;;12.10;99.90;;;;;;5051130;28;20255;-63
2023/12/26 01:37:33;;;;;;;2.90;0.93;;;12.00;99.90;;;;;;5051224;28;20233;-63
2023/12/26 01:40:00;;;;;;;2.70;1.17;;;12.00;99.90;;;;;;5051215;28;20205;-64
2023/12/26 01:42:27;;;;;;;3.17;1.00;;;12.00;99.90;;;;;;5051285;28;20204;-64
2023/12/26 01:44:54;;;;;;;3.40;1.10;;;12.00;99.90;;;;;;5051278;28;20210;-64
2023/12/26 01:47:20;;;;;;;1.63;1.10;;;12.10;99.90;;;;;;5051018;28;20715;-62
2023/12/26 01:49:49;;;;;;;3.33;1.07;;;11.90;99.90;;;;;;5051027;28;20255;-62
2023/12/26 01:52:20;;;;;;;3.83;1.03;;;11.90;99.90;;;;;;5051215;28;20232;-63
2023/12/26 01:54:47;;;;;;;3.50;1.23;;;11.90;99.90;;;;;;5051236;28;20209;-62
2023/12/26 01:57:14;;;;;;;1.93;0.70;;;11.90;99.90;;;;;;5051003;28;20714;-62
2023/12/26 01:59:43;;;;;;;3.67;1.10;;;11.90;99.90;;;;;;5050988;28;20228;-62
2023/12/26 02:02:12;;;;;;;1.60;0.80;;;11.90;99.90;;;;;;5050344;28;20205;-63
2023/12/26 02:04:38;;;;;;;2.03;0.83;;;11.90;99.90;;;;;;5050957;28;20671;-63
2023/12/26 02:07:07;;;;;;;3.03;1.03;;;11.90;99.90;;;;;;5050894;28;20228;-63
2023/12/26 02:09:35;;;;;;;2.87;0.90;;;11.90;99.90;;;;;;5051047;28;20216;-63
2023/12/26 02:12:02;;;;;;;2.83;1.07;;;11.90;99.90;;;;;;5050672;28;20231;-63
2023/12/26 02:14:29;;;;;;;3.70;0.97;;;11.90;99.90;;;;;;5050879;28;20208;-62
2023/12/26 02:16:57;;;;;;;2.47;1.03;;;11.90;99.90;;;;;;5050641;28;20248;-63
2023/12/26 02:19:25;;;;;;;1.57;0.90;;;11.90;99.90;;;;;;5050797;28;20308;-63
2023/12/26 02:21:52;;;;;;;1.87;0.90;;;11.90;99.90;;;;;;5050845;28;20728;-63
2023/12/26 02:24:20;;;;;;;3.77;1.10;;;11.90;99.90;;;;;;5050616;28;20209;-62
2023/12/26 02:26:50;;;;;;;2.13;0.90;;;11.90;99.90;;;;;;5050775;28;20632;-61
2023/12/26 02:29:17;;;;;;;3.90;1.10;;;12.00;99.90;;;;;;5050614;28;20201;-62
2023/12/26 02:31:46;;;;;;;2.20;1.37;;;11.90;99.90;;;;;;5050733;28;20259;-63
2023/12/26 02:34:12;;;;;;;2.40;0.93;;;11.90;99.90;;;;;;5050700;28;20201;-62
2023/12/26 02:36:39;;;;;;;2.03;0.73;;;12.00;99.90;;;;;;5050721;28;20209;-63
2023/12/26 02:39:09;;;;;;;4.33;1.37;;;12.00;99.90;;;;;;5050490;28;20221;-63
2023/12/26 02:41:37;;;;;;;2.47;1.30;;;12.00;99.90;;;;;;5050416;28;20276;-63
2023/12/26 02:44:04;;;;;;;3.33;0.90;;;12.00;99.90;;;;;;5050296;28;20297;-62
2023/12/26 02:46:30;;;;;;;4.00;1.13;;;11.90;99.90;;;;;;5050747;28;20208;-62
2023/12/26 02:48:57;;;;;;;2.87;0.97;;;11.90;99.90;;;;;;5050854;28;20232;-62
2023/12/26 02:51:24;;;;;;;1.83;0.90;;;11.90;99.90;;;;;;5050298;28;20691;-63
2023/12/26 02:53:51;;;;;;;2.00;1.10;;;11.90;99.90;;;;;;5050577;28;20283;-61
2023/12/26 02:56:18;;;;;;;2.60;1.00;;;11.90;99.90;;;;;;5050346;28;20653;-63
2023/12/26 02:58:46;;;;;;;1.40;0.90;;;11.80;99.90;;;;;;5050566;28;20650;-63
2023/12/26 03:01:13;;;;;;;2.37;0.90;;;11.80;99.90;;;;;;5050597;28;20206;-63
2023/12/26 03:03:39;;;;;;;2.73;1.00;;;11.70;99.90;;;;;;5050575;28;20206;-63
2023/12/26 03:06:07;;;;;;;1.50;1.00;;;11.70;99.90;;;;;;5050678;28;20213;-63
2023/12/26 03:08:34;;;;;;;2.27;0.93;;;11.60;99.90;;;;;;5050284;28;20946;-63
2023/12/26 03:11:01;;;;;;;1.60;1.10;;;11.70;99.90;;;;;;5050182;28;20208;-63
2023/12/26 03:13:27;;;;;;;4.27;1.23;;;11.50;99.90;;;;;;5050927;28;20201;-62
2023/12/26 03:15:55;;;;;;;2.17;0.93;;;11.60;99.90;;;;;;5053977;28;20213;-63
2023/12/26 03:18:22;;;;;;;2.20;1.10;;;11.60;99.90;;;;;;5053523;28;20233;-63
2023/12/26 03:20:49;;;;;;;2.37;1.03;;;11.60;99.90;;;;;;5053828;28;20313;-64
2023/12/26 03:23:17;;;;;;;1.87;0.90;;;11.50;99.90;;;;;;5053703;28;20209;-63
2023/12/26 03:25:44;;;;;;;3.20;1.07;;;11.50;99.90;;;;;;5053783;28;20209;-63
2023/12/26 03:28:11;;;;;;;2.00;0.90;;;11.60;99.90;;;;;;5053949;28;20225;-64
2023/12/26 03:30:38;;;;;;;1.43;0.70;;;11.60;99.90;;;;;;5053498;28;20206;-63
2023/12/26 03:33:06;;;;;;;1.37;0.73;;;11.60;99.90;;;;;;5053605;28;20205;-63
2023/12/26 03:35:33;;;;;;;1.40;0.77;;;11.60;99.90;;;;;;5053681;28;20210;-64
2023/12/26 03:37:59;;;;;;;2.00;0.87;;;11.60;99.90;;;;;;5053371;28;20714;-63
2023/12/26 03:40:26;;;;;;;1.33;0.73;;;11.60;99.90;;;;;;5053123;28;20699;-63
2023/12/26 03:42:53;;;;;;;1.90;0.83;;;11.50;99.90;;;;;;5053712;28;20699;-63
2023/12/26 03:45:20;;;;;;;2.03;1.03;;;11.60;99.90;;;;;;5053544;28;20214;-63
2023/12/26 03:47:46;;;;;;;1.77;0.80;;;11.50;99.90;;;;;;5053371;28;20221;-63
2023/12/26 03:50:14;;;;;;;1.10;0.70;;;11.50;99.90;;;;;;5053481;28;20197;-63
2023/12/26 03:52:41;;;;;;;1.73;0.93;;;11.60;99.90;;;;;;5052961;28;20202;-63
2023/12/26 03:55:08;;;;;;;2.33;0.90;;;11.60;99.90;;;;;;5053096;28;20209;-64
2023/12/26 03:57:35;;;;;;;0.87;0.77;;;11.60;99.90;;;;;;5053266;28;20237;-63
2023/12/26 04:00:02;;;;;;;1.27;0.80;;;11.70;99.90;;;;;;5053185;28;20221;-64
2023/12/26 04:02:28;;;;;;;2.07;0.80;;;11.70;99.90;;;;;;5052962;28;20308;-63
2023/12/26 04:04:55;;;;;;;1.80;1.00;;;11.70;99.90;;;;;;5053078;28;20217;-63
2023/12/26 04:07:23;;;;;;;2.00;1.00;;;11.70;99.90;;;;;;5052751;28;20238;-64
2023/12/26 04:09:49;;;;;;;2.27;1.00;;;11.70;99.90;;;;;;5053065;28;20222;-63
2023/12/26 04:12:16;;;;;;;2.70;0.87;;;11.70;99.90;;;;;;5052911;28;20213;-62
2023/12/26 04:14:43;;;;;;;1.77;0.97;;;11.60;99.90;;;;;;5052999;28;20690;-62
2023/12/26 04:17:10;;;;;;;1.13;0.80;;;11.60;99.90;;;;;;5075177;22;20211;-58
2023/12/26 04:19:36;;;;;;;2.20;0.93;;;11.60;99.90;;;;;;5044780;28;20275;-55
2023/12/26 04:22:03;;;;;;;1.80;0.70;;;11.60;99.90;;;;;;5044971;28;20285;-55
2023/12/26 04:24:31;;;;;;;3.27;0.90;;;11.60;99.90;;;;;;5044061;28;20210;-60
2023/12/26 04:26:58;;;;;;;1.53;1.13;;;11.60;99.90;;;;;;5044500;28;20209;-56
2023/12/26 04:29:24;;;;;;;3.27;1.00;;;11.50;99.90;;;;;;5052737;28;20201;-57
2023/12/26 04:31:51;;;;;;;2.20;1.00;;;11.50;99.90;;;;;;5052996;28;20210;-57
2023/12/26 04:34:17;;;;;;;5.20;1.43;;;11.50;99.90;;;;;;5052762;28;20202;-56
2023/12/26 04:36:44;;;;;;;2.27;0.90;;;11.50;99.90;;;;;;5052687;28;20213;-57
2023/12/26 04:39:11;;;;;;;2.87;1.03;;;11.60;99.90;;;;;;5052507;28;20225;-55
2023/12/26 04:41:39;;;;;;;1.97;0.90;;;11.60;99.90;;;;;;5052788;28;20267;-56
2023/12/26 04:44:06;;;;;;;4.03;1.27;;;11.50;99.90;;;;;;5052453;28;20214;-56
2023/12/26 04:46:32;;;;;;;3.10;1.20;;;11.50;99.90;;;;;;5052373;28;20241;-57
2023/12/26 04:48:59;;;;;;;2.27;1.10;;;11.60;99.90;;;;;;5052027;28;20312;-57
2023/12/26 04:51:30;;;;;;;4.17;1.03;;;11.60;99.90;;;;;;5052073;28;20205;-56
2023/12/26 04:53:57;;;;;;;1.83;0.90;;;11.70;99.90;;;;;;5052348;28;20210;-57
2023/12/26 04:56:25;;;;;;;3.27;1.10;;;11.70;99.90;;;;;;5052257;28;20206;-56
2023/12/26 04:58:53;;;;;;;2.60;1.10;;;11.70;99.90;;;;;;5052229;28;20232;-58
2023/12/26 05:01:21;;;;;;;2.60;1.17;;;11.70;99.90;;;;;;5051866;28;20201;-57
2023/12/26 05:03:48;;;;;;;2.30;1.17;;;11.80;99.90;;;;;;5052024;28;20206;-56
2023/12/26 05:06:19;;;;;;;4.13;1.00;;;11.90;99.90;;;;;;5051747;28;20536;-58
2023/12/26 05:08:46;;;;;;;3.27;1.10;;;11.80;99.90;;;;;;5052124;28;20279;-56
2023/12/26 05:11:21;;;;;;;4.50;1.20;;;11.90;99.90;;;;;;5051835;28;20250;-59
2023/12/26 05:13:48;;;;;;;4.13;1.37;;;11.90;99.90;;;;;;5051898;28;20646;-57
2023/12/26 05:16:16;;;;;;;2.23;1.00;;;11.90;99.90;;;;;;5051586;28;20233;-57
2023/12/26 05:18:43;;;;;;;3.13;1.00;;;11.90;99.90;;;;;;5051878;28;20253;-57
2023/12/26 05:21:17;;;;;;;2.40;1.33;;;11.90;99.90;;;;;;5051832;28;20209;-56
2023/12/26 05:23:44;;;;;;;3.70;1.10;;;11.90;99.90;;;;;;5051754;28;20678;-56
2023/12/26 05:26:11;;;;;;;3.33;1.10;;;11.90;99.90;;;;;;5051769;28;20244;-55
2023/12/26 05:28:38;;;;;;;2.77;1.10;;;11.90;99.90;;;;;;5051456;28;20586;-55
2023/12/26 05:31:05;;;;;;;4.00;1.20;;;11.90;99.90;;;;;;5051554;28;20666;-55
2023/12/26 05:33:33;;;;;;;6.73;1.57;;;11.90;99.90;;;;;;5051642;28;20201;-55
2023/12/26 05:36:00;;;;;;;6.87;1.43;;;12.00;99.90;;;;;;5051082;28;20627;-58
2023/12/26 05:38:27;;;;;;;3.13;1.17;;;11.90;99.90;;;;;;5051307;28;20240;-55
2023/12/26 05:40:54;;;;;;;5.30;1.50;;;11.90;99.90;;;;;;5051205;28;20283;-56
2023/12/26 05:43:20;;;;;;;1.80;0.93;;;11.90;99.90;;;;;;5051162;28;20212;-56
2023/12/26 05:45:47;;;;;;;4.23;1.50;;;11.80;99.90;;;;;;5051484;28;20209;-55
2023/12/26 05:48:14;;;;;;;3.20;1.67;;;11.80;99.90;;;;;;5051133;28;20290;-56
2023/12/26 05:50:42;;;;;;;2.87;1.23;;;11.70;99.90;;;;;;5051410;28;20639;-56
2023/12/26 05:53:09;;;;;;;3.80;1.10;;;11.70;99.90;;;;;;5050791;28;20201;-56
2023/12/26 05:55:35;;;;;;;2.10;1.33;;;11.60;99.90;;;;;;5050989;28;20205;-57
2023/12/26 05:58:02;;;;;;;5.10;1.30;;;11.70;99.90;;;;;;5051047;28;20772;-56
2023/12/26 06:00:29;;;;;;;4.97;1.23;;;11.70;99.90;;;;;;5050718;28;20217;-55
2023/12/26 06:02:55;;;;;;;6.00;1.70;;;11.70;99.90;;;;;;5051093;28;20254;-56
2023/12/26 06:05:22;;;;;;;3.50;1.60;;;11.60;99.90;;;;;;5051609;28;20209;-57
2023/12/26 06:07:50;;;;;;;3.57;1.10;;;11.70;99.90;;;;;;5050751;28;20225;-56
2023/12/26 06:10:18;;;;;;;3.23;1.30;;;11.70;99.90;;;;;;5050547;28;20201;-56
2023/12/26 06:12:45;;;;;;;3.43;1.57;;;11.70;99.90;;;;;;5050953;28;20210;-56
2023/12/26 06:15:11;;;;;;;6.33;4.07;;;11.70;99.90;;;;;;5050708;28;20205;-55
2023/12/26 06:17:38;;;;;;;5.53;3.50;;;11.70;99.90;;;;;;5050915;28;20233;-56
2023/12/26 06:20:07;;;;;;;6.40;1.63;;;11.70;99.90;;;;;;5050772;28;20229;-56
2023/12/26 06:22:34;;;;;;;5.03;1.67;;;11.70;99.90;;;;;;5034309;28;20217;-55
2023/12/26 06:25:02;;;;;;;4.37;1.63;;;11.60;99.90;;;;;;5050588;28;20210;-56
2023/12/26 06:27:28;;;;;;;7.63;1.63;;;11.60;99.90;;;;;;5050836;28;20234;-57
2023/12/26 06:29:55;;;;;;;4.43;1.33;;;11.50;99.90;;;;;;5051030;28;20201;-56
2023/12/26 06:32:22;;;;;;;2.07;1.33;;;11.40;99.90;;;;;;5050241;28;20566;-56
2023/12/26 06:34:48;;;;;;;1.43;0.90;;;11.30;99.90;;;;;;5050848;28;20713;-56
2023/12/26 06:37:15;;;;;;;2.77;1.10;;;11.30;99.90;;;;;;5050395;28;20229;-56
2023/12/26 06:39:43;;;;;;;3.90;1.27;;;11.20;99.90;;;;;;5050896;28;20304;-56
2023/12/26 06:42:11;;;;;;;3.77;1.57;;;11.10;99.90;;;;;;5050701;28;20296;-56
2023/12/26 06:44:38;;;;;;;2.97;1.30;;;11.10;99.90;;;;;;5050634;28;20612;-56
2023/12/26 06:47:05;;;;;;;3.93;1.20;;;11.10;99.90;;;;;;5050688;28;20209;-56
2023/12/26 06:49:32;;;;;;;3.93;1.40;;;11.10;99.90;;;;;;5054355;28;20589;-55
2023/12/26 06:51:59;;;;;;;6.90;1.73;;;11.20;99.90;;;;;;5054035;28;20589;-56
2023/12/26 06:54:26;;;;;;;4.60;1.63;;;11.20;99.90;;;;;;5054726;28;20205;-55
2023/12/26 06:56:53;;;;;;;3.77;1.60;;;11.10;99.90;;;;;;5054285;28;20240;-56
2023/12/26 06:59:21;;;;;;;3.63;1.40;;;11.10;99.90;;;;;;5054496;28;20216;-56
2023/12/26 07:01:48;;;;;;;4.40;1.60;;;11.10;99.90;;;;;;5054029;28;20209;-55
2023/12/26 07:04:15;;;;;;;4.97;1.67;;;11.10;99.90;;;;;;5053745;28;20219;-56
2023/12/26 07:06:41;;;;;;;4.27;1.60;;;11.00;99.90;;;;;;5053835;28;20271;-56
2023/12/26 07:09:08;;;;;;;4.03;1.47;;;10.90;99.90;;;;;;5053911;28;20259;-55
2023/12/26 07:11:34;;;;;;;5.93;1.50;;;10.90;99.90;;;;;;5037498;28;20228;-55
2023/12/26 07:14:01;;;;;;;3.90;1.57;;;11.00;99.90;;;;;;5054119;28;20202;-56
2023/12/26 07:16:33;;;;;;;9.97;1.97;;;11.00;99.90;;;;;;5053689;28;20210;-55
2023/12/26 07:18:59;;;;;;;2.87;1.40;;;11.00;99.90;;;;;;5053318;28;20226;-57
2023/12/26 07:21:26;;;;;;;2.93;1.30;;;11.00;99.90;;;;;;5053731;28;20557;-56
2023/12/26 07:23:53;;;;;;;3.70;1.33;;;11.00;99.90;;;;;;5053602;28;20752;-56
2023/12/26 07:26:21;;;;;;;3.73;1.27;;;11.10;99.90;;;;;;5053807;28;20594;-56
2023/12/26 07:28:48;;;;;;;4.00;1.43;;;11.10;99.90;;;;;;5053676;28;20229;-56
2023/12/26 07:31:19;;;;;;;4.07;1.57;;;11.20;99.90;;;;;;5053968;28;20201;-56
2023/12/26 07:33:47;;;;;;;5.80;1.90;;;11.20;99.90;;;;;;5054059;28;20296;-57
2023/12/26 07:36:14;;;;;;;5.00;1.47;;;11.30;99.90;;;;;;5053697;28;20687;-57
2023/12/26 07:38:41;;;;;;;4.30;1.50;;;11.40;99.90;;;;;;5053634;28;20247;-57
2023/12/26 07:41:08;;;;;;;5.37;1.77;;;11.40;99.90;;;;;;5053466;28;20228;-57
2023/12/26 07:43:34;;;;;;;5.30;2.13;;;11.50;99.90;;;;;;5053594;28;20216;-56
2023/12/26 07:46:01;;;;;;;8.90;3.80;;;11.50;99.90;;;;;;5053540;28;20210;-56
2023/12/26 07:48:28;;;;;;;7.03;1.50;;;11.50;99.90;;;;;;5054080;28;20287;-57
2023/12/26 07:50:56;;;;;;;3.90;1.63;;;11.60;99.90;;;;;;5053900;28;20242;-57
2023/12/26 07:53:23;;;;;;;5.40;2.40;;;11.70;99.90;;;;;;5053958;28;20201;-56
2023/12/26 07:55:50;;;;;;;2.93;1.50;;;11.80;99.90;;;;;;5053632;28;20288;-57
2023/12/26 07:58:17;;;;;;;6.60;1.80;;;11.80;99.90;;;;;;5053123;28;20287;-57
2023/12/26 08:00:44;;;;;;;3.00;1.40;;;11.90;99.90;;;;;;5052265;28;20271;-56
2023/12/26 08:03:15;;;;;;;6.77;1.80;;;11.90;99.90;;;;;;5053377;28;20206;-56
2023/12/26 08:05:42;;;;;;;4.97;1.40;;;12.00;99.90;;;;;;5038355;28;20663;-57
2023/12/26 08:08:10;;;;;;;4.13;1.30;;;12.10;99.90;;;;;;5052737;28;20702;-55
2023/12/26 08:10:37;;;;;;;3.80;1.63;;;12.00;99.90;;;;;;5053286;28;20285;-55
2023/12/26 08:13:04;;;;;;;4.10;1.77;;;12.20;99.90;;;;;;5052927;28;20255;-57
2023/12/26 08:15:31;;;;;;;4.80;1.53;;;12.20;99.90;;;;;;5053251;28;20209;-56
2023/12/26 08:17:58;;;;;;;3.23;1.43;;;12.20;99.90;;;;;;5053206;28;20234;-56
2023/12/26 08:20:24;;;;;;;5.27;1.43;;;12.20;99.90;;;;;;5052759;28;20222;-59
2023/12/26 08:22:52;;;;;;;4.17;1.47;;;12.30;99.90;;;;;;5053368;28;20210;-56
2023/12/26 08:25:20;;;;;;;3.63;1.80;;;12.40;99.90;;;;;;5052809;28;20311;-57
2023/12/26 08:27:47;;;;;;;3.27;1.47;;;12.50;99.90;;;;;;5052648;28;20252;-57
2023/12/26 08:30:14;;;;;;;4.10;1.83;;;12.50;99.90;;;;;;5052931;28;20205;-57
2023/12/26 08:32:41;;;;;;;4.40;1.43;;;12.50;99.90;;;;;;5052672;28;20593;-57
2023/12/26 08:35:08;;;;;;;4.13;2.53;;;12.50;99.90;;;;;;5052672;28;20205;-57
2023/12/26 08:37:35;;;;;;;6.03;1.50;;;12.60;99.90;;;;;;5052550;28;20222;-59
2023/12/26 08:40:02;;;;;;;4.17;1.87;;;12.60;99.90;;;;;;5052379;28;20198;-59
2023/12/26 08:42:30;;;;;;;3.97;1.37;;;12.70;99.90;;;;;;5052515;28;20654;-57
2023/12/26 08:44:56;;;;;;;3.27;1.60;;;12.70;99.90;;;;;;5052565;28;20205;-57
2023/12/26 08:47:23;;;;;;;6.50;1.70;;;12.80;99.90;;;;;;5052141;28;20279;-58
2023/12/26 08:49:50;;;;;;;14.73;4.93;;;12.90;99.90;;;;;;5052380;28;20605;-56
2023/12/26 08:52:16;;;;;;;24.90;8.83;;;13.00;99.90;;;;;;5052050;28;20606;-57
2023/12/26 08:54:43;;;;;;;10.80;4.93;;;13.10;99.90;;;;;;5051940;28;20206;-60
2023/12/26 08:57:10;;;;;;;18.33;11.77;;;13.20;99.90;;;;;;5052270;28;20304;-58
2023/12/26 08:59:38;;;;;;;8.57;5.23;;;13.30;99.90;;;;;;5052374;28;20202;-57
2023/12/26 09:02:05;;;;;;;4.10;1.63;;;13.30;99.90;;;;;;5051961;28;20221;-56
2023/12/26 09:04:31;;;;;;;5.03;1.47;;;13.30;99.90;;;;;;5051894;28;20208;-58
2023/12/26 09:06:59;;;;;;;8.10;1.70;;;13.30;99.90;;;;;;5052105;28;20198;-58
2023/12/26 09:09:27;;;;;;;3.80;1.50;;;13.40;99.90;;;;;;5051955;28;20209;-57
2023/12/26 09:11:56;;;;;;;5.17;1.57;;;13.40;99.90;;;;;;5050836;28;20591;-58
2023/12/26 09:14:22;;;;;;;4.60;1.93;;;13.40;99.90;;;;;;5051663;28;20236;-57
2023/12/26 09:16:50;;;;;;;4.37;1.30;;;13.40;99.90;;;;;;5051962;28;20202;-57
2023/12/26 09:19:17;;;;;;;5.37;1.70;;;13.40;99.90;;;;;;5051600;28;20205;-57
2023/12/26 09:21:44;;;;;;;4.50;1.50;;;13.50;99.90;;;;;;5051509;28;20228;-59
2023/12/26 09:24:10;;;;;;;4.83;1.50;;;13.50;99.90;;;;;;5051641;28;20212;-57
2023/12/26 09:26:37;;;;;;;3.10;1.60;;;13.40;99.90;;;;;;5051600;28;20579;-62
2023/12/26 09:29:04;;;;;;;4.83;1.70;;;13.40;99.90;;;;;;5047129;28;20238;-70
2023/12/26 09:31:30;;;;;;;5.80;1.63;;;13.50;99.90;;;;;;5045020;28;20194;-58
2023/12/26 09:33:58;;;;;;;5.80;1.47;;;13.50;99.90;;;;;;5051846;28;20209;-57
2023/12/26 09:36:25;;;;;;;2.77;1.50;;;13.50;99.90;;;;;;5051154;28;20229;-57
2023/12/26 09:38:52;;;;;;;4.67;1.60;;;13.40;99.90;;;;;;5051549;28;20315;-55
2023/12/26 09:41:24;;;;;;;16.73;8.57;;;13.40;99.90;;;;;;5051085;28;20225;-57
2023/12/26 09:43:50;;;;;;;5.63;2.43;;;13.30;99.90;;;;;;5051171;28;20616;-58
2023/12/26 09:46:17;;;;;;;4.23;1.50;;;13.40;99.90;;;;;;5051327;28;20209;-64
2023/12/26 09:48:45;;;;;;;4.10;1.70;;;13.50;99.90;;;;;;5050831;28;20613;-64
2023/12/26 09:51:19;;;;;;;2.73;1.40;;;13.50;99.90;;;;;;5047771;28;20675;-63
2023/12/26 09:53:52;;;;;;;3.63;1.70;;;13.60;99.90;;;;;;5032687;28;20254;-65
2023/12/26 09:56:20;;;;;;;5.30;1.47;;;13.70;99.90;;;;;;5051194;28;20201;-62
2023/12/26 09:58:46;;;;;;;4.00;1.73;;;13.80;99.90;;;;;;5051033;28;20252;-62
2023/12/26 10:01:13;;;;;;;5.17;1.80;;;13.90;99.90;;;;;;5050704;28;20271;-63
2023/12/26 10:03:41;;;;;;;5.33;2.60;;;14.00;99.90;;;;;;5050832;28;20251;-56
2023/12/26 10:06:08;;;;;;;5.37;1.60;;;14.00;99.90;;;;;;5051262;28;20268;-56
2023/12/26 10:08:36;;;;;;;4.87;2.20;;;14.00;99.90;;;;;;5050958;28;20252;-57
2023/12/26 10:11:03;;;;;;;5.27;2.30;;;14.00;99.90;;;;;;5050974;28;20209;-56
2023/12/26 10:13:43;;;;;;;5.47;2.80;;;14.10;99.90;;;;;;5050916;28;20208;-56
2023/12/26 10:16:10;;;;;;;6.57;3.80;;;14.10;99.90;;;;;;5050920;28;20292;-57
2023/12/26 10:18:36;;;;;;;10.00;2.40;;;14.10;99.90;;;;;;5050792;28;20613;-58
2023/12/26 10:21:03;;;;;;;4.77;1.70;;;14.10;99.90;;;;;;5050621;28;20222;-60
2023/12/26 10:23:30;;;;;;;5.00;1.53;;;14.20;99.90;;;;;;5052908;28;20280;-57
2023/12/26 10:25:58;;;;;;;2.83;1.37;;;14.20;99.90;;;;;;5055007;28;20205;-58
2023/12/26 10:28:25;;;;;;;6.03;1.67;;;14.10;99.90;;;;;;5054664;28;20229;-60
2023/12/26 10:30:52;;;;;;;3.83;1.80;;;14.10;99.90;;;;;;5054952;28;20239;-58
2023/12/26 10:33:24;;;;;;;3.90;1.20;;;14.10;99.90;;;;;;5054708;28;20205;-58
2023/12/26 10:36:02;;;;;;;4.27;1.90;;;14.20;99.90;;;;;;5054762;28;20288;-58
2023/12/26 10:38:28;;;;;;;4.30;1.50;;;14.20;99.90;;;;;;5054244;28;20311;-58
2023/12/26 10:41:00;;;;;;;5.53;1.57;;;14.30;99.90;;;;;;5054384;28;20225;-58
2023/12/26 10:43:28;;;;;;;3.37;1.73;;;14.30;99.90;;;;;;5054387;28;20205;-58
2023/12/26 10:45:56;;;;;;;3.70;1.40;;;14.30;99.90;;;;;;5054946;28;20233;-58
2023/12/26 10:48:25;;;;;;;3.60;1.30;;;14.40;99.90;;;;;;5054621;28;20229;-58
2023/12/26 10:50:53;;;;;;;3.13;1.30;;;14.50;99.90;;;;;;5054338;28;20251;-58
2023/12/26 10:53:23;;;;;;;2.67;1.07;;;14.40;99.90;;;;;;5053938;28;20213;-58
2023/12/26 10:55:50;;;;;;;2.13;1.10;;;14.40;99.90;;;;;;5054429;28;20213;-58
2023/12/26 10:58:23;;;;;;;2.70;1.47;;;14.40;99.90;;;;;;5054460;28;20225;-58
2023/12/26 11:00:50;;;;;;;3.80;1.20;;;14.50;99.90;;;;;;5054090;28;20225;-58
2023/12/26 11:03:16;;;;;;;3.60;1.33;;;14.50;99.90;;;;;;5054566;28;20224;-60
2023/12/26 11:05:43;;;;;;;3.40;1.83;;;14.50;99.90;;;;;;5054490;28;20561;-58
2023/12/26 11:08:08;;;;;;;6.90;3.10;;;14.40;99.90;;;;;;5054752;28;20279;-59
2023/12/26 11:10:34;;;;;;;3.47;1.90;;;14.40;99.90;;;;;;5054226;28;20201;-58
2023/12/26 11:13:01;;;;;;;2.43;1.30;;;14.30;99.90;;;;;;5054171;28;20204;-58
2023/12/26 11:15:30;;;;;;;3.47;1.10;;;14.40;99.90;;;;;;5054321;28;20209;-58
2023/12/26 11:17:56;;;;;;;3.77;1.20;;;14.40;99.90;;;;;;5054040;28;20683;-58
2023/12/26 11:20:23;;;;;;;2.17;1.17;;;14.20;99.90;;;;;;5053863;28;20205;-57
2023/12/26 11:22:49;;;;;;;2.77;1.60;;;14.20;99.90;;;;;;5053922;28;20658;-58
2023/12/26 11:25:15;;;;;;;2.33;1.33;;;14.10;99.90;;;;;;5054022;28;20208;-57
2023/12/26 11:27:42;;;;;;;3.40;1.13;;;14.10;99.90;;;;;;5054512;28;20267;-58
2023/12/26 11:30:08;;;;;;;3.67;1.30;;;14.10;99.90;;;;;;5054435;28;20228;-59
2023/12/26 11:32:35;;;;;;;2.33;1.00;;;14.10;99.90;;;;;;5054111;28;20202;-57
2023/12/26 11:35:02;;;;;;;3.23;1.20;;;14.30;99.90;;;;;;5053161;28;20296;-58
2023/12/26 11:37:28;;;;;;;2.50;1.20;;;14.40;99.90;;;;;;5053460;28;20796;-60
2023/12/26 11:39:54;;;;;;;3.47;1.93;;;14.50;99.90;;;;;;5053972;28;20543;-58
2023/12/26 11:42:21;;;;;;;2.30;1.20;;;14.40;99.90;;;;;;5053474;28;20217;-59
2023/12/26 11:44:47;;;;;;;2.00;0.90;;;14.40;99.90;;;;;;5053825;28;20212;-58
2023/12/26 11:47:13;;;;;;;5.03;1.30;;;14.40;99.90;;;;;;5054212;28;20218;-58
2023/12/26 11:49:41;;;;;;;16.77;11.47;;;14.40;99.90;;;;;;5053755;28;20261;-58
2023/12/26 11:52:07;;;;;;;5.53;2.53;;;14.50;99.90;;;;;;5053650;28;20205;-59
2023/12/26 11:54:32;;;;;;;5.87;2.90;;;14.50;99.90;;;;;;5053863;28;20206;-59
2023/12/26 11:56:59;;;;;;;7.83;3.80;;;14.50;99.90;;;;;;5053820;28;20280;-59
2023/12/26 11:59:25;;;;;;;8.00;3.57;;;14.50;99.90;;;;;;5053645;28;20225;-58
2023/12/26 12:01:51;;;;;;;22.13;14.30;;;14.60;99.90;;;;;;5053972;28;20695;-59
2023/12/26 12:04:17;;;;;;;21.70;12.43;;;14.60;99.90;;;;;;5053837;28;20285;-58
2023/12/26 12:07:09;;;;;;;10.33;5.50;;;14.60;99.90;;;;;;5037448;28;20209;-58
2023/12/26 12:09:36;;;;;;;4.43;1.60;;;14.50;99.90;;;;;;5053705;28;20209;-60
2023/12/26 12:12:02;;;;;;;2.80;2.40;;;14.50;99.90;;;;;;5053680;28;20193;-57
2023/12/26 12:14:27;;;;;;;4.57;2.73;;;14.50;99.90;;;;;;5053449;28;20212;-58
2023/12/26 12:16:54;;;;;;;2.13;1.30;;;14.40;99.90;;;;;;5053457;28;20194;-57
2023/12/26 12:19:20;;;;;;;2.53;1.20;;;14.50;99.90;;;;;;5053692;28;20212;-58
2023/12/26 12:21:46;;;;;;;4.33;2.00;;;14.50;99.90;;;;;;5053586;28;20634;-61
2023/12/26 12:24:20;;;;;;;1.90;0.90;;;14.50;99.90;;;;;;5053839;28;20214;-62
2023/12/26 12:27:04;;;;;;;1.77;1.10;;;14.60;99.90;;;;;;5053904;28;20581;-64
2023/12/26 12:29:58;;;;;;;2.37;1.17;;;14.50;99.90;;;;;;5053234;28;20205;-64
2023/12/26 12:32:29;;;;;;;2.73;1.40;;;14.50;99.90;;;;;;5053196;28;20280;-64
2023/12/26 12:35:11;;;;;;;2.33;1.93;;;14.40;99.90;;;;;;5053502;28;20198;-62
2023/12/26 12:37:36;;;;;;;5.10;2.20;;;14.40;99.90;;;;;;5052860;28;20252;-61
2023/12/26 12:40:05;;;;;;;3.47;1.97;;;14.30;99.90;;;;;;5052705;28;20600;-62
2023/12/26 12:42:34;;;;;;;8.80;5.40;;;14.20;99.90;;;;;;5052418;28;20257;-62
2023/12/26 12:45:00;;;;;;;12.80;5.90;;;14.10;99.90;;;;;;5052823;28;20241;-62
2023/12/26 12:47:26;;;;;;;13.87;6.40;;;14.10;99.90;;;;;;5052873;28;20275;-62